sensor_id;sensor_type;location;lat;lon;timestamp;temperature;humidity
24011;DHT22;12217;50.792;4.372;2023-06-19T00:01:47;20.60;99.90
24011;DHT22;12217;50.792;4.372;2023-06-19T00:04:13;20.60;99.90
24011;DHT22;12217;50.792;4.372;2023-06-19T00:06:39;20.50;99.90
24011;DHT22;12217;50.792;4.372;2023-06-19T00:09:06;20.50;99.90
24011;DHT22;12217;50.792;4.372;2023-06-19T00:11:32;20.60;99.90
24011;DHT22;12217;50.792;4.372;2023-06-19T00:13:57;20.60;99.90
24011;DHT22;12217;50.792;4.372;2023-06-19T00:16:23;20.50;99.90
24011;DHT22;12217;50.792;4.372;2023-06-19T00:18:50;20.70;99.90
24011;DHT22;12217;50.792;4.372;2023-06-19T00:21:17;20.90;99.90
24011;DHT22;12217;50.792;4.372;2023-06-19T00:23:42;20.90;99.90
24011;DHT22;12217;50.792;4.372;2023-06-19T00:26:08;21.00;99.90
24011;DHT22;12217;50.792;4.372;2023-06-19T00:28:33;20.70;99.90
24011;DHT22;12217;50.792;4.372;2023-06-19T00:30:59;20.60;99.90
24011;DHT22;12217;50.792;4.372;2023-06-19T00:33:24;20.60;99.90
24011;DHT22;12217;50.792;4.372;2023-06-19T00:35:50;20.60;99.90
24011;DHT22;12217;50.792;4.372;2023-06-19T00:38:16;20.50;99.90
24011;DHT22;12217;50.792;4.372;2023-06-19T00:40:42;20.30;99.90
24011;DHT22;12217;50.792;4.372;2023-06-19T00:43:07;20.30;99.90
24011;DHT22;12217;50.792;4.372;2023-06-19T00:45:33;20.40;99.90
24011;DHT22;12217;50.792;4.372;2023-06-19T00:47:59;20.20;99.90
24011;DHT22;12217;50.792;4.372;2023-06-19T00:50:25;20.10;99.90
24011;DHT22;12217;50.792;4.372;2023-06-19T00:52:53;20.10;99.90
24011;DHT22;12217;50.792;4.372;2023-06-19T00:55:19;20.10;99.90
24011;DHT22;12217;50.792;4.372;2023-06-19T00:57:45;20.20;99.90
24011;DHT22;12217;50.792;4.372;2023-06-19T01:00:11;20.10;99.90
24011;DHT22;12217;50.792;4.372;2023-06-19T01:02:38;20.00;99.90
24011;DHT22;12217;50.792;4.372;2023-06-19T01:05:05;20.00;99.90
24011;DHT22;12217;50.792;4.372;2023-06-19T01:10:34;20.10;99.90
24011;DHT22;12217;50.792;4.372;2023-06-19T01:13:06;20.00;99.90
24011;DHT22;12217;50.792;4.372;2023-06-19T01:15:34;20.00;99.90
24011;DHT22;12217;50.792;4.372;2023-06-19T01:18:00;20.10;99.90
24011;DHT22;12217;50.792;4.372;2023-06-19T01:20:27;20.20;99.90
24011;DHT22;12217;50.792;4.372;2023-06-19T01:22:54;20.30;99.90
24011;DHT22;12217;50.792;4.372;2023-06-19T01:25:23;20.20;99.90
24011;DHT22;12217;50.792;4.372;2023-06-19T01:27:48;20.20;99.90
24011;DHT22;12217;50.792;4.372;2023-06-19T01:30:14;20.10;99.90
24011;DHT22;12217;50.792;4.372;2023-06-19T01:32:41;20.20;99.90
24011;DHT22;12217;50.792;4.372;2023-06-19T01:35:09;20.20;99.90
24011;DHT22;12217;50.792;4.372;2023-06-19T01:37:37;20.30;99.90
24011;DHT22;12217;50.792;4.372;2023-06-19T01:40:05;20.20;99.90
24011;DHT22;12217;50.792;4.372;2023-06-19T01:42:32;20.20;99.90
24011;DHT22;12217;50.792;4.372;2023-06-19T01:44:59;20.30;99.90
24011;DHT22;12217;50.792;4.372;2023-06-19T01:47:25;20.30;99.90
24011;DHT22;12217;50.792;4.372;2023-06-19T01:49:51;20.30;99.90
24011;DHT22;12217;50.792;4.372;2023-06-19T01:52:16;20.40;99.90
24011;DHT22;12217;50.792;4.372;2023-06-19T01:54:42;20.50;99.90
24011;DHT22;12217;50.792;4.372;2023-06-19T01:57:08;20.50;99.90
24011;DHT22;12217;50.792;4.372;2023-06-19T01:59:33;20.30;99.90
24011;DHT22;12217;50.792;4.372;2023-06-19T02:01:59;20.30;99.90
24011;DHT22;12217;50.792;4.372;2023-06-19T02:04:25;20.30;99.90
24011;DHT22;12217;50.792;4.372;2023-06-19T02:06:50;20.30;99.90
24011;DHT22;12217;50.792;4.372;2023-06-19T02:09:16;20.40;99.90
24011;DHT22;12217;50.792;4.372;2023-06-19T02:11:41;20.50;99.90
24011;DHT22;12217;50.792;4.372;2023-06-19T02:14:09;20.40;99.90
24011;DHT22;12217;50.792;4.372;2023-06-19T02:16:35;20.50;99.90
24011;DHT22;12217;50.792;4.372;2023-06-19T02:19:01;20.50;99.90
24011;DHT22;12217;50.792;4.372;2023-06-19T02:21:26;20.60;99.90
24011;DHT22;12217;50.792;4.372;2023-06-19T02:23:53;20.50;99.90
24011;DHT22;12217;50.792;4.372;2023-06-19T02:26:19;20.60;99.90
24011;DHT22;12217;50.792;4.372;2023-06-19T02:28:44;20.50;99.90
24011;DHT22;12217;50.792;4.372;2023-06-19T02:31:10;20.50;99.90
24011;DHT22;12217;50.792;4.372;2023-06-19T02:33:35;20.40;99.90
24011;DHT22;12217;50.792;4.372;2023-06-19T02:36:02;20.30;99.90
24011;DHT22;12217;50.792;4.372;2023-06-19T02:38:28;20.20;99.90
24011;DHT22;12217;50.792;4.372;2023-06-19T02:40:55;20.20;99.90
24011;DHT22;12217;50.792;4.372;2023-06-19T02:43:23;20.10;99.90
24011;DHT22;12217;50.792;4.372;2023-06-19T02:45:48;20.10;99.90
24011;DHT22;12217;50.792;4.372;2023-06-19T02:48:14;20.30;99.90
24011;DHT22;12217;50.792;4.372;2023-06-19T02:50:39;20.20;99.90
24011;DHT22;12217;50.792;4.372;2023-06-19T02:53:05;20.30;99.90
24011;DHT22;12217;50.792;4.372;2023-06-19T02:55:30;20.30;99.90
24011;DHT22;12217;50.792;4.372;2023-06-19T02:57:56;20.30;99.90
24011;DHT22;12217;50.792;4.372;2023-06-19T03:00:22;20.30;99.90
24011;DHT22;12217;50.792;4.372;2023-06-19T03:02:47;20.10;99.90
24011;DHT22;12217;50.792;4.372;2023-06-19T03:05:14;20.00;99.90
24011;DHT22;12217;50.792;4.372;2023-06-19T03:07:41;20.00;99.90
24011;DHT22;12217;50.792;4.372;2023-06-19T03:10:07;19.90;99.90
24011;DHT22;12217;50.792;4.372;2023-06-19T03:12:32;20.10;99.90
24011;DHT22;12217;50.792;4.372;2023-06-19T03:14:58;20.10;99.90
24011;DHT22;12217;50.792;4.372;2023-06-19T03:17:24;20.10;99.90
24011;DHT22;12217;50.792;4.372;2023-06-19T03:19:49;19.90;99.90
24011;DHT22;12217;50.792;4.372;2023-06-19T03:22:15;19.70;99.90
24011;DHT22;12217;50.792;4.372;2023-06-19T03:24:40;19.50;99.90
24011;DHT22;12217;50.792;4.372;2023-06-19T03:27:06;19.40;99.90
24011;DHT22;12217;50.792;4.372;2023-06-19T03:29:32;19.40;99.90
24011;DHT22;12217;50.792;4.372;2023-06-19T03:31:57;19.50;99.90
24011;DHT22;12217;50.792;4.372;2023-06-19T03:34:23;19.40;99.90
24011;DHT22;12217;50.792;4.372;2023-06-19T03:36:48;19.40;99.90
24011;DHT22;12217;50.792;4.372;2023-06-19T03:39:14;19.70;99.90
24011;DHT22;12217;50.792;4.372;2023-06-19T03:41:39;19.90;99.90
24011;DHT22;12217;50.792;4.372;2023-06-19T03:44:05;19.90;99.90
24011;DHT22;12217;50.792;4.372;2023-06-19T03:46:31;19.80;99.90
24011;DHT22;12217;50.792;4.372;2023-06-19T03:48:56;19.70;99.90
24011;DHT22;12217;50.792;4.372;2023-06-19T03:51:22;19.60;99.90
24011;DHT22;12217;50.792;4.372;2023-06-19T03:53:47;19.70;99.90
24011;DHT22;12217;50.792;4.372;2023-06-19T03:56:13;19.80;99.90
24011;DHT22;12217;50.792;4.372;2023-06-19T03:58:38;19.70;99.90
24011;DHT22;12217;50.792;4.372;2023-06-19T04:01:04;19.60;99.90
24011;DHT22;12217;50.792;4.372;2023-06-19T04:03:31;19.60;99.90
24011;DHT22;12217;50.792;4.372;2023-06-19T04:05:56;19.70;99.90
24011;DHT22;12217;50.792;4.372;2023-06-19T04:08:22;19.60;99.90
24011;DHT22;12217;50.792;4.372;2023-06-19T04:10:47;19.70;99.90
24011;DHT22;12217;50.792;4.372;2023-06-19T04:13:13;19.80;99.90
24011;DHT22;12217;50.792;4.372;2023-06-19T04:15:39;19.90;99.90
24011;DHT22;12217;50.792;4.372;2023-06-19T04:18:04;20.00;99.90
24011;DHT22;12217;50.792;4.372;2023-06-19T04:20:30;20.00;99.90
24011;DHT22;12217;50.792;4.372;2023-06-19T04:22:55;20.10;99.90
24011;DHT22;12217;50.792;4.372;2023-06-19T04:25:21;20.10;99.90
24011;DHT22;12217;50.792;4.372;2023-06-19T04:27:47;20.00;99.90
24011;DHT22;12217;50.792;4.372;2023-06-19T04:30:13;19.90;99.90
24011;DHT22;12217;50.792;4.372;2023-06-19T04:32:38;19.90;99.90
24011;DHT22;12217;50.792;4.372;2023-06-19T04:35:08;19.70;99.90
24011;DHT22;12217;50.792;4.372;2023-06-19T04:37:34;19.80;99.90
24011;DHT22;12217;50.792;4.372;2023-06-19T04:39:59;19.90;99.90
24011;DHT22;12217;50.792;4.372;2023-06-19T04:42:25;20.00;99.90
24011;DHT22;12217;50.792;4.372;2023-06-19T04:44:52;20.00;99.90
24011;DHT22;12217;50.792;4.372;2023-06-19T04:47:21;19.90;99.90
24011;DHT22;12217;50.792;4.372;2023-06-19T04:49:47;19.90;99.90
24011;DHT22;12217;50.792;4.372;2023-06-19T04:52:13;20.10;99.90
24011;DHT22;12217;50.792;4.372;2023-06-19T04:54:38;20.10;99.90
24011;DHT22;12217;50.792;4.372;2023-06-19T04:57:04;20.10;99.90
24011;DHT22;12217;50.792;4.372;2023-06-19T04:59:30;20.00;99.90
24011;DHT22;12217;50.792;4.372;2023-06-19T05:01:56;19.90;99.90
24011;DHT22;12217;50.792;4.372;2023-06-19T05:04:23;20.00;99.90
24011;DHT22;12217;50.792;4.372;2023-06-19T05:06:49;20.00;99.90
24011;DHT22;12217;50.792;4.372;2023-06-19T05:09:15;19.80;99.90
24011;DHT22;12217;50.792;4.372;2023-06-19T05:11:40;19.80;99.90
24011;DHT22;12217;50.792;4.372;2023-06-19T05:14:06;19.70;99.90
24011;DHT22;12217;50.792;4.372;2023-06-19T05:16:33;19.70;99.90
24011;DHT22;12217;50.792;4.372;2023-06-19T05:18:59;19.80;99.90
24011;DHT22;12217;50.792;4.372;2023-06-19T05:21:25;20.00;99.90
24011;DHT22;12217;50.792;4.372;2023-06-19T05:23:50;20.10;99.90
24011;DHT22;12217;50.792;4.372;2023-06-19T05:26:18;20.20;99.90
24011;DHT22;12217;50.792;4.372;2023-06-19T05:28:44;20.30;99.90
24011;DHT22;12217;50.792;4.372;2023-06-19T05:31:10;20.20;99.90
24011;DHT22;12217;50.792;4.372;2023-06-19T05:33:35;20.00;99.90
24011;DHT22;12217;50.792;4.372;2023-06-19T05:36:01;20.00;99.90
24011;DHT22;12217;50.792;4.372;2023-06-19T05:38:27;19.90;99.90
24011;DHT22;12217;50.792;4.372;2023-06-19T05:40:56;19.50;99.90
24011;DHT22;12217;50.792;4.372;2023-06-19T05:43:21;19.50;99.90
24011;DHT22;12217;50.792;4.372;2023-06-19T05:45:48;19.60;99.90
24011;DHT22;12217;50.792;4.372;2023-06-19T05:48:13;19.50;99.90
24011;DHT22;12217;50.792;4.372;2023-06-19T05:50:39;19.30;99.90
24011;DHT22;12217;50.792;4.372;2023-06-19T05:53:05;19.20;99.90
24011;DHT22;12217;50.792;4.372;2023-06-19T05:55:31;19.20;99.90
24011;DHT22;12217;50.792;4.372;2023-06-19T05:57:56;19.10;99.90
24011;DHT22;12217;50.792;4.372;2023-06-19T06:00:22;19.20;99.90
24011;DHT22;12217;50.792;4.372;2023-06-19T06:02:48;19.20;99.90
24011;DHT22;12217;50.792;4.372;2023-06-19T06:05:14;19.20;99.90
24011;DHT22;12217;50.792;4.372;2023-06-19T06:07:39;19.10;99.90
24011;DHT22;12217;50.792;4.372;2023-06-19T06:10:05;19.10;99.90
24011;DHT22;12217;50.792;4.372;2023-06-19T06:12:34;19.20;99.90
24011;DHT22;12217;50.792;4.372;2023-06-19T06:15:04;19.20;99.90
24011;DHT22;12217;50.792;4.372;2023-06-19T06:17:30;19.30;99.90
24011;DHT22;12217;50.792;4.372;2023-06-19T06:19:55;19.30;99.90
24011;DHT22;12217;50.792;4.372;2023-06-19T06:22:21;19.20;99.90
24011;DHT22;12217;50.792;4.372;2023-06-19T06:24:46;19.10;99.90
24011;DHT22;12217;50.792;4.372;2023-06-19T06:27:12;19.20;99.90
24011;DHT22;12217;50.792;4.372;2023-06-19T06:29:38;19.30;99.90
24011;DHT22;12217;50.792;4.372;2023-06-19T06:32:05;19.30;99.90
24011;DHT22;12217;50.792;4.372;2023-06-19T06:34:31;19.00;99.90
24011;DHT22;12217;50.792;4.372;2023-06-19T06:36:58;18.90;99.90
24011;DHT22;12217;50.792;4.372;2023-06-19T06:39:24;18.80;99.90
24011;DHT22;12217;50.792;4.372;2023-06-19T06:41:49;18.80;99.90
24011;DHT22;12217;50.792;4.372;2023-06-19T06:44:15;18.80;99.90
24011;DHT22;12217;50.792;4.372;2023-06-19T06:46:41;18.90;99.90
24011;DHT22;12217;50.792;4.372;2023-06-19T06:49:06;18.80;99.90
24011;DHT22;12217;50.792;4.372;2023-06-19T06:51:32;18.70;99.90
24011;DHT22;12217;50.792;4.372;2023-06-19T06:53:57;18.80;99.90
24011;DHT22;12217;50.792;4.372;2023-06-19T06:56:24;19.00;99.90
24011;DHT22;12217;50.792;4.372;2023-06-19T06:58:49;19.00;99.90
24011;DHT22;12217;50.792;4.372;2023-06-19T07:01:15;19.10;99.90
24011;DHT22;12217;50.792;4.372;2023-06-19T07:03:41;19.30;99.90
24011;DHT22;12217;50.792;4.372;2023-06-19T07:06:06;19.30;99.90
24011;DHT22;12217;50.792;4.372;2023-06-19T07:08:32;19.30;99.90
24011;DHT22;12217;50.792;4.372;2023-06-19T07:10:58;19.10;99.90
24011;DHT22;12217;50.792;4.372;2023-06-19T07:13:24;19.10;99.90
24011;DHT22;12217;50.792;4.372;2023-06-19T07:15:50;19.40;99.90
24011;DHT22;12217;50.792;4.372;2023-06-19T07:18:15;19.60;99.90
24011;DHT22;12217;50.792;4.372;2023-06-19T07:20:41;19.60;99.90
24011;DHT22;12217;50.792;4.372;2023-06-19T07:23:06;19.70;99.90
24011;DHT22;12217;50.792;4.372;2023-06-19T07:25:32;19.70;99.90
24011;DHT22;12217;50.792;4.372;2023-06-19T07:27:59;19.80;99.90
24011;DHT22;12217;50.792;4.372;2023-06-19T07:30:25;20.00;99.90
24011;DHT22;12217;50.792;4.372;2023-06-19T07:32:51;20.20;99.90
24011;DHT22;12217;50.792;4.372;2023-06-19T07:35:17;20.20;99.90
24011;DHT22;12217;50.792;4.372;2023-06-19T07:37:44;20.30;99.90
24011;DHT22;12217;50.792;4.372;2023-06-19T07:40:10;20.50;99.90
24011;DHT22;12217;50.792;4.372;2023-06-19T07:42:36;20.50;99.90
24011;DHT22;12217;50.792;4.372;2023-06-19T07:45:01;20.50;99.90
24011;DHT22;12217;50.792;4.372;2023-06-19T07:47:27;20.30;99.90
24011;DHT22;12217;50.792;4.372;2023-06-19T07:49:53;20.30;99.90
24011;DHT22;12217;50.792;4.372;2023-06-19T07:52:18;20.10;99.90
24011;DHT22;12217;50.792;4.372;2023-06-19T07:54:52;20.00;99.90
24011;DHT22;12217;50.792;4.372;2023-06-19T07:57:18;20.20;99.90
24011;DHT22;12217;50.792;4.372;2023-06-19T07:59:43;20.50;99.90
24011;DHT22;12217;50.792;4.372;2023-06-19T08:02:10;20.70;99.90
24011;DHT22;12217;50.792;4.372;2023-06-19T08:04:36;20.80;99.90
24011;DHT22;12217;50.792;4.372;2023-06-19T08:07:02;20.80;99.90
24011;DHT22;12217;50.792;4.372;2023-06-19T08:09:27;20.70;99.90
24011;DHT22;12217;50.792;4.372;2023-06-19T08:11:53;21.00;99.90
24011;DHT22;12217;50.792;4.372;2023-06-19T08:14:18;21.20;99.90
24011;DHT22;12217;50.792;4.372;2023-06-19T08:16:44;21.30;99.90
24011;DHT22;12217;50.792;4.372;2023-06-19T08:19:10;21.30;99.90
24011;DHT22;12217;50.792;4.372;2023-06-19T08:21:36;21.20;99.90
24011;DHT22;12217;50.792;4.372;2023-06-19T08:24:01;21.40;99.90
24011;DHT22;12217;50.792;4.372;2023-06-19T08:26:28;21.40;99.90
24011;DHT22;12217;50.792;4.372;2023-06-19T08:28:53;21.40;99.90
24011;DHT22;12217;50.792;4.372;2023-06-19T08:31:19;21.40;99.90
24011;DHT22;12217;50.792;4.372;2023-06-19T08:33:47;21.30;99.90
24011;DHT22;12217;50.792;4.372;2023-06-19T08:36:16;21.20;99.90
24011;DHT22;12217;50.792;4.372;2023-06-19T08:38:41;21.50;99.90
24011;DHT22;12217;50.792;4.372;2023-06-19T08:41:07;21.40;99.90
24011;DHT22;12217;50.792;4.372;2023-06-19T08:43:32;21.50;99.90
24011;DHT22;12217;50.792;4.372;2023-06-19T08:46:12;21.80;99.90
24011;DHT22;12217;50.792;4.372;2023-06-19T08:48:38;21.90;99.90
24011;DHT22;12217;50.792;4.372;2023-06-19T08:51:05;22.00;99.90
24011;DHT22;12217;50.792;4.372;2023-06-19T08:53:44;21.70;99.90
24011;DHT22;12217;50.792;4.372;2023-06-19T08:56:10;21.90;99.90
24011;DHT22;12217;50.792;4.372;2023-06-19T08:58:36;22.10;99.90
24011;DHT22;12217;50.792;4.372;2023-06-19T09:01:02;22.00;99.90
24011;DHT22;12217;50.792;4.372;2023-06-19T09:03:28;22.10;99.90
24011;DHT22;12217;50.792;4.372;2023-06-19T09:05:54;22.30;99.90
24011;DHT22;12217;50.792;4.372;2023-06-19T09:08:20;22.60;99.90
24011;DHT22;12217;50.792;4.372;2023-06-19T09:11:03;22.60;99.90
24011;DHT22;12217;50.792;4.372;2023-06-19T09:13:31;22.70;99.90
24011;DHT22;12217;50.792;4.372;2023-06-19T09:16:05;22.90;99.90
24011;DHT22;12217;50.792;4.372;2023-06-19T09:18:41;23.00;99.90
24011;DHT22;12217;50.792;4.372;2023-06-19T09:21:15;23.10;99.90
24011;DHT22;12217;50.792;4.372;2023-06-19T09:23:41;23.40;99.90
24011;DHT22;12217;50.792;4.372;2023-06-19T09:26:07;23.50;99.90
24011;DHT22;12217;50.792;4.372;2023-06-19T09:28:33;23.50;99.90
24011;DHT22;12217;50.792;4.372;2023-06-19T09:31:01;23.50;99.90
24011;DHT22;12217;50.792;4.372;2023-06-19T09:33:32;23.50;99.90
24011;DHT22;12217;50.792;4.372;2023-06-19T09:35:59;23.60;99.90
24011;DHT22;12217;50.792;4.372;2023-06-19T09:38:27;23.60;99.90
24011;DHT22;12217;50.792;4.372;2023-06-19T09:40:54;23.40;99.90
24011;DHT22;12217;50.792;4.372;2023-06-19T09:43:25;23.50;99.90
24011;DHT22;12217;50.792;4.372;2023-06-19T09:45:55;23.50;99.90
24011;DHT22;12217;50.792;4.372;2023-06-19T09:48:27;23.60;99.90
24011;DHT22;12217;50.792;4.372;2023-06-19T09:51:02;23.80;99.90
24011;DHT22;12217;50.792;4.372;2023-06-19T09:53:29;23.90;99.90
24011;DHT22;12217;50.792;4.372;2023-06-19T09:55:55;24.10;99.90
24011;DHT22;12217;50.792;4.372;2023-06-19T09:58:21;24.00;99.90
24011;DHT22;12217;50.792;4.372;2023-06-19T10:00:48;24.00;99.90
24011;DHT22;12217;50.792;4.372;2023-06-19T10:03:16;23.80;99.90
24011;DHT22;12217;50.792;4.372;2023-06-19T10:05:42;23.70;99.90
24011;DHT22;12217;50.792;4.372;2023-06-19T10:08:09;23.50;99.90
24011;DHT22;12217;50.792;4.372;2023-06-19T10:10:36;23.40;99.90
24011;DHT22;12217;50.792;4.372;2023-06-19T10:13:17;23.50;99.90
24011;DHT22;12217;50.792;4.372;2023-06-19T10:15:44;23.60;99.90
24011;DHT22;12217;50.792;4.372;2023-06-19T10:18:14;23.50;99.90
24011;DHT22;12217;50.792;4.372;2023-06-19T10:20:42;23.60;99.90
24011;DHT22;12217;50.792;4.372;2023-06-19T10:23:12;23.90;99.90
24011;DHT22;12217;50.792;4.372;2023-06-19T10:25:42;24.20;99.90
24011;DHT22;12217;50.792;4.372;2023-06-19T10:28:25;24.20;99.90
24011;DHT22;12217;50.792;4.372;2023-06-19T10:33:26;24.20;99.90
24011;DHT22;12217;50.792;4.372;2023-06-19T10:35:52;24.50;99.90
24011;DHT22;12217;50.792;4.372;2023-06-19T10:38:18;24.50;99.90
24011;DHT22;12217;50.792;4.372;2023-06-19T10:40:45;24.80;99.90
24011;DHT22;12217;50.792;4.372;2023-06-19T10:43:11;24.90;99.90
24011;DHT22;12217;50.792;4.372;2023-06-19T10:45:37;24.90;99.90
24011;DHT22;12217;50.792;4.372;2023-06-19T10:48:04;24.90;99.90
24011;DHT22;12217;50.792;4.372;2023-06-19T10:50:41;24.90;99.90
24011;DHT22;12217;50.792;4.372;2023-06-19T10:53:07;25.00;99.90
24011;DHT22;12217;50.792;4.372;2023-06-19T10:55:32;25.10;99.90
24011;DHT22;12217;50.792;4.372;2023-06-19T10:57:58;25.10;99.90
24011;DHT22;12217;50.792;4.372;2023-06-19T11:00:29;25.10;99.90
24011;DHT22;12217;50.792;4.372;2023-06-19T11:02:56;25.30;99.90
24011;DHT22;12217;50.792;4.372;2023-06-19T11:05:23;25.50;99.90
24011;DHT22;12217;50.792;4.372;2023-06-19T11:07:57;25.70;99.90
24011;DHT22;12217;50.792;4.372;2023-06-19T11:10:24;26.00;99.90
24011;DHT22;12217;50.792;4.372;2023-06-19T11:12:54;26.20;99.90
24011;DHT22;12217;50.792;4.372;2023-06-19T11:15:20;26.20;99.90
24011;DHT22;12217;50.792;4.372;2023-06-19T11:17:46;26.10;99.90
24011;DHT22;12217;50.792;4.372;2023-06-19T11:20:13;26.40;99.90
24011;DHT22;12217;50.792;4.372;2023-06-19T11:22:42;26.90;99.90
24011;DHT22;12217;50.792;4.372;2023-06-19T11:25:09;27.10;99.90
24011;DHT22;12217;50.792;4.372;2023-06-19T11:27:38;27.10;99.90
24011;DHT22;12217;50.792;4.372;2023-06-19T11:30:05;27.00;99.90
24011;DHT22;12217;50.792;4.372;2023-06-19T11:32:37;27.00;99.90
24011;DHT22;12217;50.792;4.372;2023-06-19T11:35:08;26.90;99.90
24011;DHT22;12217;50.792;4.372;2023-06-19T11:37:34;27.10;99.90
24011;DHT22;12217;50.792;4.372;2023-06-19T11:40:02;27.30;99.90
24011;DHT22;12217;50.792;4.372;2023-06-19T11:42:51;27.60;99.90
24011;DHT22;12217;50.792;4.372;2023-06-19T11:45:16;27.30;99.90
24011;DHT22;12217;50.792;4.372;2023-06-19T11:47:44;27.40;99.90
24011;DHT22;12217;50.792;4.372;2023-06-19T11:50:10;27.20;99.90
24011;DHT22;12217;50.792;4.372;2023-06-19T11:52:36;27.10;99.90
24011;DHT22;12217;50.792;4.372;2023-06-19T11:55:02;26.90;99.90
24011;DHT22;12217;50.792;4.372;2023-06-19T11:57:27;27.00;99.90
24011;DHT22;12217;50.792;4.372;2023-06-19T11:59:53;27.00;99.90
24011;DHT22;12217;50.792;4.372;2023-06-19T12:02:19;27.20;99.90
24011;DHT22;12217;50.792;4.372;2023-06-19T12:04:44;27.30;99.90
24011;DHT22;12217;50.792;4.372;2023-06-19T12:07:10;27.60;99.90
24011;DHT22;12217;50.792;4.372;2023-06-19T12:09:36;27.60;99.90
24011;DHT22;12217;50.792;4.372;2023-06-19T12:12:05;27.70;99.90
24011;DHT22;12217;50.792;4.372;2023-06-19T12:14:30;27.50;99.90
24011;DHT22;12217;50.792;4.372;2023-06-19T12:16:56;27.30;99.90
24011;DHT22;12217;50.792;4.372;2023-06-19T12:19:21;27.50;99.90
24011;DHT22;12217;50.792;4.372;2023-06-19T12:21:47;27.90;99.90
24011;DHT22;12217;50.792;4.372;2023-06-19T12:24:13;28.30;99.90
24011;DHT22;12217;50.792;4.372;2023-06-19T12:26:38;28.40;99.90
24011;DHT22;12217;50.792;4.372;2023-06-19T12:29:06;28.70;99.10
24011;DHT22;12217;50.792;4.372;2023-06-19T12:31:32;28.80;98.30
24011;DHT22;12217;50.792;4.372;2023-06-19T12:33:58;28.40;99.90
24011;DHT22;12217;50.792;4.372;2023-06-19T12:36:24;27.90;99.60
24011;DHT22;12217;50.792;4.372;2023-06-19T12:38:52;27.70;99.90
24011;DHT22;12217;50.792;4.372;2023-06-19T12:41:22;27.80;99.90
24011;DHT22;12217;50.792;4.372;2023-06-19T12:43:48;28.10;99.90
24011;DHT22;12217;50.792;4.372;2023-06-19T12:46:14;28.50;99.40
24011;DHT22;12217;50.792;4.372;2023-06-19T12:48:40;28.10;98.70
24011;DHT22;12217;50.792;4.372;2023-06-19T12:51:06;28.30;99.80
24011;DHT22;12217;50.792;4.372;2023-06-19T12:53:32;28.70;99.70
24011;DHT22;12217;50.792;4.372;2023-06-19T12:55:58;29.10;99.90
24011;DHT22;12217;50.792;4.372;2023-06-19T12:58:24;29.20;97.10
24011;DHT22;12217;50.792;4.372;2023-06-19T13:00:50;29.00;97.20
24011;DHT22;12217;50.792;4.372;2023-06-19T13:03:16;29.30;98.00
24011;DHT22;12217;50.792;4.372;2023-06-19T13:05:42;29.80;96.60
24011;DHT22;12217;50.792;4.372;2023-06-19T13:08:07;29.90;96.40
24011;DHT22;12217;50.792;4.372;2023-06-19T13:10:33;29.90;95.10
24011;DHT22;12217;50.792;4.372;2023-06-19T13:12:58;29.90;94.20
24011;DHT22;12217;50.792;4.372;2023-06-19T13:15:24;29.90;94.40
24011;DHT22;12217;50.792;4.372;2023-06-19T13:17:50;29.90;94.00
24011;DHT22;12217;50.792;4.372;2023-06-19T13:20:16;30.10;93.50
24011;DHT22;12217;50.792;4.372;2023-06-19T13:22:42;30.10;93.80
24011;DHT22;12217;50.792;4.372;2023-06-19T13:25:08;29.90;93.40
24011;DHT22;12217;50.792;4.372;2023-06-19T13:27:33;29.90;94.10
24011;DHT22;12217;50.792;4.372;2023-06-19T13:30:00;30.20;93.60
24011;DHT22;12217;50.792;4.372;2023-06-19T13:32:26;30.20;94.00
24011;DHT22;12217;50.792;4.372;2023-06-19T13:34:52;30.50;92.80
24011;DHT22;12217;50.792;4.372;2023-06-19T13:37:18;30.40;92.90
24011;DHT22;12217;50.792;4.372;2023-06-19T13:39:44;29.90;93.80
24011;DHT22;12217;50.792;4.372;2023-06-19T13:42:09;29.80;94.60
24011;DHT22;12217;50.792;4.372;2023-06-19T13:44:37;30.00;95.30
24011;DHT22;12217;50.792;4.372;2023-06-19T13:47:03;30.30;95.40
24011;DHT22;12217;50.792;4.372;2023-06-19T13:49:29;30.50;93.80
24011;DHT22;12217;50.792;4.372;2023-06-19T13:51:55;30.80;93.20
24011;DHT22;12217;50.792;4.372;2023-06-19T13:54:21;31.10;93.80
24011;DHT22;12217;50.792;4.372;2023-06-19T13:56:47;31.00;91.90
24011;DHT22;12217;50.792;4.372;2023-06-19T13:59:14;30.20;91.90
24011;DHT22;12217;50.792;4.372;2023-06-19T14:01:39;29.60;92.90
24011;DHT22;12217;50.792;4.372;2023-06-19T14:04:06;29.60;93.60
24011;DHT22;12217;50.792;4.372;2023-06-19T14:06:32;29.60;94.30
24011;DHT22;12217;50.792;4.372;2023-06-19T14:08:57;29.80;95.40
24011;DHT22;12217;50.792;4.372;2023-06-19T14:11:23;30.10;94.60
24011;DHT22;12217;50.792;4.372;2023-06-19T14:13:48;30.30;93.30
24011;DHT22;12217;50.792;4.372;2023-06-19T14:16:15;30.50;94.30
24011;DHT22;12217;50.792;4.372;2023-06-19T14:18:41;30.70;92.40
24011;DHT22;12217;50.792;4.372;2023-06-19T14:21:06;30.70;92.50
24011;DHT22;12217;50.792;4.372;2023-06-19T14:23:32;30.40;91.70
24011;DHT22;12217;50.792;4.372;2023-06-19T14:25:59;30.40;93.70
24011;DHT22;12217;50.792;4.372;2023-06-19T14:28:25;30.70;93.30
24011;DHT22;12217;50.792;4.372;2023-06-19T14:30:50;31.20;92.90
24011;DHT22;12217;50.792;4.372;2023-06-19T14:33:16;31.30;90.80
24011;DHT22;12217;50.792;4.372;2023-06-19T14:35:42;30.50;91.40
24011;DHT22;12217;50.792;4.372;2023-06-19T14:38:10;30.60;92.40
24011;DHT22;12217;50.792;4.372;2023-06-19T14:40:35;30.80;92.40
24011;DHT22;12217;50.792;4.372;2023-06-19T14:43:01;30.70;91.30
24011;DHT22;12217;50.792;4.372;2023-06-19T14:45:26;30.80;90.10
24011;DHT22;12217;50.792;4.372;2023-06-19T14:47:52;30.90;91.10
24011;DHT22;12217;50.792;4.372;2023-06-19T14:50:17;30.70;90.30
24011;DHT22;12217;50.792;4.372;2023-06-19T14:52:43;30.70;90.90
24011;DHT22;12217;50.792;4.372;2023-06-19T14:55:10;30.30;91.40
24011;DHT22;12217;50.792;4.372;2023-06-19T14:57:36;30.30;91.50
24011;DHT22;12217;50.792;4.372;2023-06-19T15:00:02;30.30;90.90
24011;DHT22;12217;50.792;4.372;2023-06-19T15:02:27;30.10;91.20
24011;DHT22;12217;50.792;4.372;2023-06-19T15:04:53;30.10;92.00
24011;DHT22;12217;50.792;4.372;2023-06-19T15:07:19;30.10;91.40
24011;DHT22;12217;50.792;4.372;2023-06-19T15:09:44;30.10;90.70
24011;DHT22;12217;50.792;4.372;2023-06-19T15:12:10;30.10;91.10
24011;DHT22;12217;50.792;4.372;2023-06-19T15:14:36;30.10;90.70
24011;DHT22;12217;50.792;4.372;2023-06-19T15:17:03;30.30;91.50
24011;DHT22;12217;50.792;4.372;2023-06-19T15:19:29;30.50;92.20
24011;DHT22;12217;50.792;4.372;2023-06-19T15:21:54;30.70;91.50
24011;DHT22;12217;50.792;4.372;2023-06-19T15:24:20;30.80;90.70
24011;DHT22;12217;50.792;4.372;2023-06-19T15:26:45;30.60;91.10
24011;DHT22;12217;50.792;4.372;2023-06-19T15:29:11;30.60;90.00
24011;DHT22;12217;50.792;4.372;2023-06-19T15:31:37;30.50;89.30